MET'MAP v2.0
soon released !

Expected late october,
this new version will be
more efficient, smarter,
and hosted on a brand new
server x3 powerfull...
...and still free !


Not compatible ?
Try the mobile version !

LOG IN : | Subscribe | Disclaimer | Who is Orbifly ? |
ICAO code :

TAF - LRAR Arad International Airport - 05 Jun 2020 05:25 UTC - Data Source NOAA   


- Airport Elevation : 352 ft
- IATA code : ARW
- No reported NOTAMs.


LRAR - Arad International Airport

Latest METAR recorded : 2015/08/11 08:00 LRAR 110800Z 12007KT CAVOK 32/08 Q1013
TAF TAF LRAR
Valid from the 05 at 03:00 until the 05 at 12:00 UTC


050200Z 0503/0512 18010KT CAVOK
BECMG 0505/0507 18020KT
TEMPO 0507/0512 19025G35KT

Source NOAA


MET'MAP, your aeronautical weather chart ! - Copyright ORBIFLY December 2007

Programming & Development : Alexandra Zaïnal
Co-Developer : Marc-Olivier Méhu
Technical & hardware support : Manuel Goepfert
Concept & Financing : Baudouin d'Aumeries